sensor_id;sensor_type;location;lat;lon;timestamp;P1;durP1;ratioP1;P2;durP2;ratioP2
59998;SDS011;45859;51.378;6.736;2023-07-31T00:01:23;28.00;;;13.23;;
59998;SDS011;45859;51.378;6.736;2023-07-31T00:03:49;27.73;;;13.57;;
59998;SDS011;45859;51.378;6.736;2023-07-31T00:06:14;25.10;;;14.17;;
59998;SDS011;45859;51.378;6.736;2023-07-31T00:08:40;29.45;;;13.52;;
59998;SDS011;45859;51.378;6.736;2023-07-31T00:11:06;32.40;;;17.93;;
59998;SDS011;45859;51.378;6.736;2023-07-31T00:13:31;23.70;;;13.50;;
59998;SDS011;45859;51.378;6.736;2023-07-31T00:15:57;19.55;;;9.60;;
59998;SDS011;45859;51.378;6.736;2023-07-31T00:18:23;22.13;;;11.77;;
59998;SDS011;45859;51.378;6.736;2023-07-31T00:20:48;20.17;;;9.93;;
59998;SDS011;45859;51.378;6.736;2023-07-31T00:23:14;25.80;;;13.97;;
59998;SDS011;45859;51.378;6.736;2023-07-31T00:25:40;30.40;;;17.88;;
59998;SDS011;45859;51.378;6.736;2023-07-31T00:28:06;31.35;;;18.65;;
59998;SDS011;45859;51.378;6.736;2023-07-31T00:30:32;29.20;;;14.27;;
59998;SDS011;45859;51.378;6.736;2023-07-31T00:32:58;25.55;;;14.23;;
59998;SDS011;45859;51.378;6.736;2023-07-31T00:35:24;31.83;;;15.93;;
59998;SDS011;45859;51.378;6.736;2023-07-31T00:37:49;28.25;;;12.15;;
59998;SDS011;45859;51.378;6.736;2023-07-31T00:40:15;14.55;;;8.13;;
59998;SDS011;45859;51.378;6.736;2023-07-31T00:42:41;28.47;;;12.77;;
59998;SDS011;45859;51.378;6.736;2023-07-31T00:45:06;26.23;;;11.57;;
59998;SDS011;45859;51.378;6.736;2023-07-31T00:47:32;24.65;;;12.90;;
59998;SDS011;45859;51.378;6.736;2023-07-31T00:49:59;17.95;;;8.07;;
59998;SDS011;45859;51.378;6.736;2023-07-31T00:52:24;16.85;;;7.00;;
59998;SDS011;45859;51.378;6.736;2023-07-31T00:54:50;13.75;;;6.97;;
59998;SDS011;45859;51.378;6.736;2023-07-31T00:57:16;12.95;;;6.03;;
59998;SDS011;45859;51.378;6.736;2023-07-31T00:59:41;12.38;;;6.20;;
59998;SDS011;45859;51.378;6.736;2023-07-31T01:02:07;11.68;;;5.95;;
59998;SDS011;45859;51.378;6.736;2023-07-31T01:04:33;10.15;;;5.35;;
59998;SDS011;45859;51.378;6.736;2023-07-31T01:09:36;16.60;;;6.60;;
59998;SDS011;45859;51.378;6.736;2023-07-31T01:12:24;12.70;;;6.28;;
59998;SDS011;45859;51.378;6.736;2023-07-31T01:17:26;17.38;;;5.85;;
59998;SDS011;45859;51.378;6.736;2023-07-31T01:19:52;11.40;;;5.50;;
59998;SDS011;45859;51.378;6.736;2023-07-31T01:28:01;12.45;;;5.85;;
59998;SDS011;45859;51.378;6.736;2023-07-31T01:30:33;17.33;;;6.13;;
59998;SDS011;45859;51.378;6.736;2023-07-31T01:33:02;13.90;;;6.73;;
59998;SDS011;45859;51.378;6.736;2023-07-31T01:37:58;18.15;;;8.88;;
59998;SDS011;45859;51.378;6.736;2023-07-31T01:40:24;16.55;;;6.60;;
59998;SDS011;45859;51.378;6.736;2023-07-31T01:42:50;14.60;;;5.47;;
59998;SDS011;45859;51.378;6.736;2023-07-31T01:45:15;11.75;;;5.80;;
59998;SDS011;45859;51.378;6.736;2023-07-31T01:47:41;17.13;;;6.68;;
59998;SDS011;45859;51.378;6.736;2023-07-31T01:50:07;21.95;;;10.85;;
59998;SDS011;45859;51.378;6.736;2023-07-31T01:52:33;13.90;;;6.15;;
59998;SDS011;45859;51.378;6.736;2023-07-31T01:54:59;12.90;;;5.72;;
59998;SDS011;45859;51.378;6.736;2023-07-31T01:57:25;11.40;;;4.97;;
59998;SDS011;45859;51.378;6.736;2023-07-31T01:59:50;13.18;;;5.68;;
59998;SDS011;45859;51.378;6.736;2023-07-31T02:02:18;12.57;;;5.15;;
59998;SDS011;45859;51.378;6.736;2023-07-31T02:04:44;16.83;;;6.78;;
59998;SDS011;45859;51.378;6.736;2023-07-31T02:07:10;12.90;;;5.95;;
59998;SDS011;45859;51.378;6.736;2023-07-31T02:09:35;12.23;;;5.95;;
59998;SDS011;45859;51.378;6.736;2023-07-31T02:12:01;10.80;;;6.00;;
59998;SDS011;45859;51.378;6.736;2023-07-31T02:14:27;16.50;;;8.23;;
59998;SDS011;45859;51.378;6.736;2023-07-31T02:16:53;21.77;;;9.75;;
59998;SDS011;45859;51.378;6.736;2023-07-31T02:19:18;17.77;;;7.90;;
59998;SDS011;45859;51.378;6.736;2023-07-31T02:21:44;20.80;;;8.48;;
59998;SDS011;45859;51.378;6.736;2023-07-31T02:24:10;14.77;;;7.40;;
59998;SDS011;45859;51.378;6.736;2023-07-31T02:26:35;18.33;;;7.72;;
59998;SDS011;45859;51.378;6.736;2023-07-31T02:29:01;16.42;;;7.22;;
59998;SDS011;45859;51.378;6.736;2023-07-31T02:31:27;18.33;;;6.30;;
59998;SDS011;45859;51.378;6.736;2023-07-31T02:33:52;15.00;;;6.53;;
59998;SDS011;45859;51.378;6.736;2023-07-31T02:36:18;18.38;;;7.68;;
59998;SDS011;45859;51.378;6.736;2023-07-31T02:38:44;12.40;;;5.20;;
59998;SDS011;45859;51.378;6.736;2023-07-31T02:41:09;17.73;;;6.95;;
59998;SDS011;45859;51.378;6.736;2023-07-31T02:43:35;14.25;;;5.65;;
59998;SDS011;45859;51.378;6.736;2023-07-31T02:46:01;18.33;;;7.75;;
59998;SDS011;45859;51.378;6.736;2023-07-31T02:48:26;12.95;;;5.25;;
59998;SDS011;45859;51.378;6.736;2023-07-31T02:50:53;13.43;;;5.47;;
59998;SDS011;45859;51.378;6.736;2023-07-31T02:53:18;14.25;;;5.95;;
59998;SDS011;45859;51.378;6.736;2023-07-31T02:55:44;11.15;;;5.53;;
59998;SDS011;45859;51.378;6.736;2023-07-31T02:58:10;17.83;;;9.93;;
59998;SDS011;45859;51.378;6.736;2023-07-31T03:00:35;14.77;;;5.38;;
59998;SDS011;45859;51.378;6.736;2023-07-31T03:05:32;11.38;;;5.38;;
59998;SDS011;45859;51.378;6.736;2023-07-31T03:07:57;13.95;;;5.20;;
59998;SDS011;45859;51.378;6.736;2023-07-31T03:10:23;15.00;;;6.22;;
59998;SDS011;45859;51.378;6.736;2023-07-31T03:12:49;20.38;;;9.45;;
59998;SDS011;45859;51.378;6.736;2023-07-31T03:15:14;13.50;;;5.10;;
59998;SDS011;45859;51.378;6.736;2023-07-31T03:17:40;14.45;;;6.05;;
59998;SDS011;45859;51.378;6.736;2023-07-31T03:20:06;12.30;;;5.25;;
59998;SDS011;45859;51.378;6.736;2023-07-31T03:22:33;10.80;;;4.63;;
59998;SDS011;45859;51.378;6.736;2023-07-31T03:25:00;12.98;;;5.47;;
59998;SDS011;45859;51.378;6.736;2023-07-31T03:27:29;11.07;;;5.10;;
59998;SDS011;45859;51.378;6.736;2023-07-31T03:29:55;12.65;;;5.88;;
59998;SDS011;45859;51.378;6.736;2023-07-31T03:32:20;13.35;;;6.45;;
59998;SDS011;45859;51.378;6.736;2023-07-31T03:34:46;15.00;;;6.43;;
59998;SDS011;45859;51.378;6.736;2023-07-31T03:37:12;16.63;;;5.50;;
59998;SDS011;45859;51.378;6.736;2023-07-31T03:39:38;15.35;;;6.75;;
59998;SDS011;45859;51.378;6.736;2023-07-31T03:42:03;15.20;;;6.68;;
59998;SDS011;45859;51.378;6.736;2023-07-31T03:44:29;13.68;;;6.13;;
59998;SDS011;45859;51.378;6.736;2023-07-31T03:46:55;15.38;;;6.25;;
59998;SDS011;45859;51.378;6.736;2023-07-31T03:49:21;14.07;;;5.55;;
59998;SDS011;45859;51.378;6.736;2023-07-31T03:51:47;10.95;;;4.88;;
59998;SDS011;45859;51.378;6.736;2023-07-31T03:54:12;14.70;;;5.32;;
59998;SDS011;45859;51.378;6.736;2023-07-31T03:56:39;14.32;;;5.25;;
59998;SDS011;45859;51.378;6.736;2023-07-31T03:59:05;15.10;;;5.75;;
59998;SDS011;45859;51.378;6.736;2023-07-31T04:01:31;15.25;;;5.75;;
59998;SDS011;45859;51.378;6.736;2023-07-31T04:03:57;18.02;;;6.25;;
59998;SDS011;45859;51.378;6.736;2023-07-31T04:06:22;14.23;;;5.30;;
59998;SDS011;45859;51.378;6.736;2023-07-31T04:08:48;18.48;;;5.88;;
59998;SDS011;45859;51.378;6.736;2023-07-31T04:11:14;14.63;;;5.78;;
59998;SDS011;45859;51.378;6.736;2023-07-31T04:13:40;25.42;;;6.13;;
59998;SDS011;45859;51.378;6.736;2023-07-31T04:16:05;14.15;;;5.82;;
59998;SDS011;45859;51.378;6.736;2023-07-31T04:18:31;17.73;;;6.20;;
59998;SDS011;45859;51.378;6.736;2023-07-31T04:20:57;9.40;;;5.32;;
59998;SDS011;45859;51.378;6.736;2023-07-31T04:23:23;13.27;;;5.90;;
59998;SDS011;45859;51.378;6.736;2023-07-31T04:25:50;14.25;;;6.35;;
59998;SDS011;45859;51.378;6.736;2023-07-31T04:28:16;15.18;;;5.57;;
59998;SDS011;45859;51.378;6.736;2023-07-31T04:30:41;12.55;;;5.53;;
59998;SDS011;45859;51.378;6.736;2023-07-31T04:33:07;10.15;;;4.90;;
59998;SDS011;45859;51.378;6.736;2023-07-31T04:35:33;9.32;;;4.82;;
59998;SDS011;45859;51.378;6.736;2023-07-31T04:37:59;10.15;;;4.90;;
59998;SDS011;45859;51.378;6.736;2023-07-31T04:40:25;9.50;;;5.28;;
59998;SDS011;45859;51.378;6.736;2023-07-31T04:42:50;13.98;;;5.18;;
59998;SDS011;45859;51.378;6.736;2023-07-31T04:45:16;13.10;;;5.32;;
59998;SDS011;45859;51.378;6.736;2023-07-31T04:47:42;13.82;;;5.22;;
59998;SDS011;45859;51.378;6.736;2023-07-31T04:50:08;11.18;;;5.40;;
59998;SDS011;45859;51.378;6.736;2023-07-31T04:52:34;9.95;;;5.22;;
59998;SDS011;45859;51.378;6.736;2023-07-31T04:55:00;9.18;;;5.50;;
59998;SDS011;45859;51.378;6.736;2023-07-31T04:57:26;6.97;;;4.20;;
59998;SDS011;45859;51.378;6.736;2023-07-31T04:59:51;10.20;;;5.18;;
59998;SDS011;45859;51.378;6.736;2023-07-31T05:02:17;9.68;;;5.03;;
59998;SDS011;45859;51.378;6.736;2023-07-31T05:04:43;7.95;;;4.85;;
59998;SDS011;45859;51.378;6.736;2023-07-31T05:07:08;8.43;;;4.72;;
59998;SDS011;45859;51.378;6.736;2023-07-31T05:09:34;9.65;;;5.38;;
59998;SDS011;45859;51.378;6.736;2023-07-31T05:12:00;11.27;;;4.97;;
59998;SDS011;45859;51.378;6.736;2023-07-31T05:14:26;8.35;;;5.05;;
59998;SDS011;45859;51.378;6.736;2023-07-31T05:16:51;10.77;;;5.10;;
59998;SDS011;45859;51.378;6.736;2023-07-31T05:19:17;12.23;;;5.43;;
59998;SDS011;45859;51.378;6.736;2023-07-31T05:21:43;10.20;;;5.13;;
59998;SDS011;45859;51.378;6.736;2023-07-31T05:24:10;8.55;;;5.38;;
59998;SDS011;45859;51.378;6.736;2023-07-31T05:26:36;12.00;;;5.60;;
59998;SDS011;45859;51.378;6.736;2023-07-31T05:29:02;11.60;;;5.32;;
59998;SDS011;45859;51.378;6.736;2023-07-31T05:31:28;7.78;;;5.22;;
59998;SDS011;45859;51.378;6.736;2023-07-31T05:33:54;9.55;;;5.30;;
59998;SDS011;45859;51.378;6.736;2023-07-31T05:36:20;9.80;;;4.93;;
59998;SDS011;45859;51.378;6.736;2023-07-31T05:38:46;12.02;;;4.95;;
59998;SDS011;45859;51.378;6.736;2023-07-31T05:41:12;10.48;;;5.18;;
59998;SDS011;45859;51.378;6.736;2023-07-31T05:43:38;11.27;;;5.30;;
59998;SDS011;45859;51.378;6.736;2023-07-31T05:46:04;10.80;;;5.50;;
59998;SDS011;45859;51.378;6.736;2023-07-31T05:48:31;12.57;;;6.07;;
59998;SDS011;45859;51.378;6.736;2023-07-31T05:50:59;8.45;;;5.05;;
59998;SDS011;45859;51.378;6.736;2023-07-31T05:53:25;10.35;;;6.05;;
59998;SDS011;45859;51.378;6.736;2023-07-31T05:55:50;8.73;;;5.10;;
59998;SDS011;45859;51.378;6.736;2023-07-31T05:58:16;8.43;;;5.10;;
59998;SDS011;45859;51.378;6.736;2023-07-31T06:00:42;9.48;;;5.53;;
59998;SDS011;45859;51.378;6.736;2023-07-31T06:03:07;10.27;;;5.22;;
59998;SDS011;45859;51.378;6.736;2023-07-31T06:05:33;11.80;;;5.70;;
59998;SDS011;45859;51.378;6.736;2023-07-31T06:07:59;9.90;;;5.32;;
59998;SDS011;45859;51.378;6.736;2023-07-31T06:10:24;11.18;;;4.93;;
59998;SDS011;45859;51.378;6.736;2023-07-31T06:12:50;10.93;;;5.18;;
59998;SDS011;45859;51.378;6.736;2023-07-31T06:15:16;11.35;;;5.53;;
59998;SDS011;45859;51.378;6.736;2023-07-31T06:17:44;8.35;;;5.25;;
59998;SDS011;45859;51.378;6.736;2023-07-31T06:20:13;9.75;;;5.50;;
59998;SDS011;45859;51.378;6.736;2023-07-31T06:22:38;10.50;;;6.03;;
59998;SDS011;45859;51.378;6.736;2023-07-31T06:25:04;11.90;;;6.18;;
59998;SDS011;45859;51.378;6.736;2023-07-31T06:27:30;10.25;;;5.85;;
59998;SDS011;45859;51.378;6.736;2023-07-31T06:29:56;13.48;;;6.35;;
59998;SDS011;45859;51.378;6.736;2023-07-31T06:32:22;11.68;;;6.00;;
59998;SDS011;45859;51.378;6.736;2023-07-31T06:34:48;9.18;;;5.85;;
59998;SDS011;45859;51.378;6.736;2023-07-31T06:37:14;10.38;;;6.40;;
59998;SDS011;45859;51.378;6.736;2023-07-31T06:39:39;10.60;;;6.57;;
59998;SDS011;45859;51.378;6.736;2023-07-31T06:42:05;11.40;;;6.20;;
59998;SDS011;45859;51.378;6.736;2023-07-31T06:44:31;13.32;;;6.70;;
59998;SDS011;45859;51.378;6.736;2023-07-31T06:46:57;11.60;;;6.32;;
59998;SDS011;45859;51.378;6.736;2023-07-31T06:49:22;9.30;;;6.57;;
59998;SDS011;45859;51.378;6.736;2023-07-31T06:51:48;10.25;;;6.88;;
59998;SDS011;45859;51.378;6.736;2023-07-31T06:54:14;11.35;;;7.18;;
59998;SDS011;45859;51.378;6.736;2023-07-31T06:56:39;13.55;;;6.82;;
59998;SDS011;45859;51.378;6.736;2023-07-31T06:59:05;11.10;;;7.05;;
59998;SDS011;45859;51.378;6.736;2023-07-31T07:01:31;9.82;;;6.00;;
59998;SDS011;45859;51.378;6.736;2023-07-31T07:03:57;10.02;;;6.55;;
59998;SDS011;45859;51.378;6.736;2023-07-31T07:06:22;10.05;;;6.70;;
59998;SDS011;45859;51.378;6.736;2023-07-31T07:08:48;14.35;;;8.13;;
59998;SDS011;45859;51.378;6.736;2023-07-31T07:11:14;12.50;;;7.32;;
59998;SDS011;45859;51.378;6.736;2023-07-31T07:13:39;15.52;;;9.10;;
59998;SDS011;45859;51.378;6.736;2023-07-31T07:16:05;15.57;;;9.73;;
59998;SDS011;45859;51.378;6.736;2023-07-31T07:18:31;12.65;;;7.25;;
59998;SDS011;45859;51.378;6.736;2023-07-31T07:20:57;12.60;;;7.30;;
59998;SDS011;45859;51.378;6.736;2023-07-31T07:23:23;10.13;;;6.78;;
59998;SDS011;45859;51.378;6.736;2023-07-31T07:25:49;11.10;;;7.18;;
59998;SDS011;45859;51.378;6.736;2023-07-31T07:28:16;13.35;;;8.73;;
59998;SDS011;45859;51.378;6.736;2023-07-31T07:30:42;13.15;;;7.53;;
59998;SDS011;45859;51.378;6.736;2023-07-31T07:33:07;11.40;;;8.83;;
59998;SDS011;45859;51.378;6.736;2023-07-31T07:35:33;11.70;;;7.40;;
59998;SDS011;45859;51.378;6.736;2023-07-31T07:38:00;10.63;;;7.53;;
59998;SDS011;45859;51.378;6.736;2023-07-31T07:40:26;11.65;;;7.15;;
59998;SDS011;45859;51.378;6.736;2023-07-31T07:42:52;12.18;;;8.63;;
59998;SDS011;45859;51.378;6.736;2023-07-31T07:45:18;13.73;;;8.20;;
59998;SDS011;45859;51.378;6.736;2023-07-31T07:47:43;14.38;;;7.68;;
59998;SDS011;45859;51.378;6.736;2023-07-31T07:50:09;15.68;;;8.98;;
59998;SDS011;45859;51.378;6.736;2023-07-31T07:52:35;14.63;;;9.00;;
59998;SDS011;45859;51.378;6.736;2023-07-31T07:55:00;12.82;;;7.82;;
59998;SDS011;45859;51.378;6.736;2023-07-31T07:57:27;8.80;;;6.40;;
59998;SDS011;45859;51.378;6.736;2023-07-31T07:59:53;13.23;;;7.40;;
59998;SDS011;45859;51.378;6.736;2023-07-31T08:02:19;9.32;;;7.03;;
59998;SDS011;45859;51.378;6.736;2023-07-31T08:04:44;7.27;;;5.73;;
59998;SDS011;45859;51.378;6.736;2023-07-31T08:07:10;9.57;;;6.00;;
59998;SDS011;45859;51.378;6.736;2023-07-31T08:09:37;7.82;;;6.13;;
59998;SDS011;45859;51.378;6.736;2023-07-31T08:12:03;8.57;;;5.15;;
59998;SDS011;45859;51.378;6.736;2023-07-31T08:14:30;8.23;;;5.50;;
59998;SDS011;45859;51.378;6.736;2023-07-31T08:16:56;10.40;;;5.15;;
59998;SDS011;45859;51.378;6.736;2023-07-31T08:19:22;7.37;;;4.80;;
59998;SDS011;45859;51.378;6.736;2023-07-31T08:21:47;7.78;;;4.65;;
59998;SDS011;45859;51.378;6.736;2023-07-31T08:24:13;6.45;;;5.07;;
59998;SDS011;45859;51.378;6.736;2023-07-31T08:26:39;8.27;;;4.70;;
59998;SDS011;45859;51.378;6.736;2023-07-31T08:29:05;9.97;;;4.43;;
59998;SDS011;45859;51.378;6.736;2023-07-31T08:31:31;8.75;;;4.28;;
59998;SDS011;45859;51.378;6.736;2023-07-31T08:33:56;8.98;;;4.55;;
59998;SDS011;45859;51.378;6.736;2023-07-31T08:36:22;6.53;;;4.10;;
59998;SDS011;45859;51.378;6.736;2023-07-31T08:38:48;4.53;;;3.83;;
59998;SDS011;45859;51.378;6.736;2023-07-31T08:41:15;8.93;;;4.65;;
59998;SDS011;45859;51.378;6.736;2023-07-31T08:43:44;7.80;;;4.93;;
59998;SDS011;45859;51.378;6.736;2023-07-31T08:48:43;12.13;;;4.80;;
59998;SDS011;45859;51.378;6.736;2023-07-31T08:51:09;8.93;;;4.93;;
59998;SDS011;45859;51.378;6.736;2023-07-31T08:53:35;10.43;;;5.18;;
59998;SDS011;45859;51.378;6.736;2023-07-31T08:56:01;7.13;;;4.35;;
59998;SDS011;45859;51.378;6.736;2023-07-31T08:58:27;6.78;;;4.47;;
59998;SDS011;45859;51.378;6.736;2023-07-31T09:00:56;8.23;;;4.95;;
59998;SDS011;45859;51.378;6.736;2023-07-31T09:03:23;6.03;;;3.80;;
59998;SDS011;45859;51.378;6.736;2023-07-31T09:05:51;5.50;;;4.10;;
59998;SDS011;45859;51.378;6.736;2023-07-31T09:08:19;6.93;;;4.10;;
59998;SDS011;45859;51.378;6.736;2023-07-31T09:10:46;8.13;;;4.00;;
59998;SDS011;45859;51.378;6.736;2023-07-31T09:13:13;8.40;;;4.50;;
59998;SDS011;45859;51.378;6.736;2023-07-31T09:15:40;6.83;;;4.37;;
59998;SDS011;45859;51.378;6.736;2023-07-31T09:18:07;9.05;;;5.72;;
59998;SDS011;45859;51.378;6.736;2023-07-31T09:20:33;8.60;;;5.45;;
59998;SDS011;45859;51.378;6.736;2023-07-31T09:23:04;7.28;;;4.43;;
59998;SDS011;45859;51.378;6.736;2023-07-31T09:25:33;10.00;;;5.68;;
59998;SDS011;45859;51.378;6.736;2023-07-31T09:28:06;7.15;;;5.15;;
59998;SDS011;45859;51.378;6.736;2023-07-31T09:30:46;7.20;;;5.13;;
59998;SDS011;45859;51.378;6.736;2023-07-31T09:33:14;6.95;;;4.80;;
59998;SDS011;45859;51.378;6.736;2023-07-31T09:35:40;8.20;;;5.78;;
59998;SDS011;45859;51.378;6.736;2023-07-31T09:38:07;8.40;;;4.78;;
59998;SDS011;45859;51.378;6.736;2023-07-31T09:40:35;6.23;;;4.97;;
59998;SDS011;45859;51.378;6.736;2023-07-31T09:43:03;8.05;;;5.57;;
59998;SDS011;45859;51.378;6.736;2023-07-31T09:45:37;6.68;;;5.25;;
59998;SDS011;45859;51.378;6.736;2023-07-31T09:48:16;7.30;;;4.45;;
59998;SDS011;45859;51.378;6.736;2023-07-31T09:50:44;7.88;;;5.93;;
59998;SDS011;45859;51.378;6.736;2023-07-31T09:53:11;7.05;;;4.78;;
59998;SDS011;45859;51.378;6.736;2023-07-31T09:55:37;9.65;;;4.97;;
59998;SDS011;45859;51.378;6.736;2023-07-31T09:58:04;7.03;;;5.20;;
59998;SDS011;45859;51.378;6.736;2023-07-31T10:00:34;8.35;;;6.35;;
59998;SDS011;45859;51.378;6.736;2023-07-31T10:03:02;9.00;;;6.10;;
59998;SDS011;45859;51.378;6.736;2023-07-31T10:05:34;9.57;;;6.60;;
59998;SDS011;45859;51.378;6.736;2023-07-31T10:08:00;8.73;;;5.30;;
59998;SDS011;45859;51.378;6.736;2023-07-31T10:10:26;6.30;;;4.90;;
59998;SDS011;45859;51.378;6.736;2023-07-31T10:12:53;9.77;;;5.97;;
59998;SDS011;45859;51.378;6.736;2023-07-31T10:15:20;11.32;;;5.82;;
59998;SDS011;45859;51.378;6.736;2023-07-31T10:17:47;8.30;;;6.00;;
59998;SDS011;45859;51.378;6.736;2023-07-31T10:20:14;7.30;;;5.40;;
59998;SDS011;45859;51.378;6.736;2023-07-31T10:22:44;8.15;;;5.93;;
59998;SDS011;45859;51.378;6.736;2023-07-31T10:25:11;11.63;;;5.85;;
59998;SDS011;45859;51.378;6.736;2023-07-31T10:27:40;7.13;;;5.38;;
59998;SDS011;45859;51.378;6.736;2023-07-31T10:30:14;8.40;;;5.78;;
59998;SDS011;45859;51.378;6.736;2023-07-31T10:32:43;8.30;;;5.88;;
59998;SDS011;45859;51.378;6.736;2023-07-31T10:35:10;10.80;;;6.00;;
59998;SDS011;45859;51.378;6.736;2023-07-31T10:37:41;9.50;;;6.45;;
59998;SDS011;45859;51.378;6.736;2023-07-31T10:42:52;12.27;;;7.30;;
59998;SDS011;45859;51.378;6.736;2023-07-31T10:48:14;9.07;;;5.90;;
59998;SDS011;45859;51.378;6.736;2023-07-31T10:50:51;8.10;;;5.10;;
59998;SDS011;45859;51.378;6.736;2023-07-31T10:53:28;6.65;;;5.00;;
59998;SDS011;45859;51.378;6.736;2023-07-31T10:55:59;6.47;;;4.93;;
59998;SDS011;45859;51.378;6.736;2023-07-31T10:58:25;7.72;;;5.32;;
59998;SDS011;45859;51.378;6.736;2023-07-31T11:00:54;8.27;;;4.68;;
59998;SDS011;45859;51.378;6.736;2023-07-31T11:03:24;6.45;;;4.30;;
59998;SDS011;45859;51.378;6.736;2023-07-31T11:08:20;6.95;;;4.20;;
59998;SDS011;45859;51.378;6.736;2023-07-31T11:15:54;20.17;;;5.18;;
59998;SDS011;45859;51.378;6.736;2023-07-31T11:18:20;8.57;;;3.75;;
59998;SDS011;45859;51.378;6.736;2023-07-31T11:20:46;8.90;;;4.05;;
59998;SDS011;45859;51.378;6.736;2023-07-31T11:23:12;7.93;;;3.88;;
59998;SDS011;45859;51.378;6.736;2023-07-31T11:25:38;5.95;;;3.40;;
59998;SDS011;45859;51.378;6.736;2023-07-31T11:28:08;10.18;;;4.10;;
59998;SDS011;45859;51.378;6.736;2023-07-31T11:30:36;10.02;;;4.13;;
59998;SDS011;45859;51.378;6.736;2023-07-31T11:33:03;10.25;;;4.38;;
59998;SDS011;45859;51.378;6.736;2023-07-31T11:35:30;7.13;;;4.00;;
59998;SDS011;45859;51.378;6.736;2023-07-31T11:37:57;4.88;;;3.53;;
59998;SDS011;45859;51.378;6.736;2023-07-31T11:40:23;7.45;;;3.72;;
59998;SDS011;45859;51.378;6.736;2023-07-31T11:42:57;9.02;;;4.53;;
59998;SDS011;45859;51.378;6.736;2023-07-31T11:45:28;6.40;;;4.60;;
59998;SDS011;45859;51.378;6.736;2023-07-31T11:47:55;8.25;;;4.72;;
59998;SDS011;45859;51.378;6.736;2023-07-31T11:50:21;5.97;;;3.67;;
59998;SDS011;45859;51.378;6.736;2023-07-31T11:52:51;7.45;;;4.28;;
59998;SDS011;45859;51.378;6.736;2023-07-31T11:57:47;5.70;;;3.35;;
59998;SDS011;45859;51.378;6.736;2023-07-31T12:00:13;7.60;;;4.15;;
59998;SDS011;45859;51.378;6.736;2023-07-31T12:02:40;5.90;;;4.15;;
59998;SDS011;45859;51.378;6.736;2023-07-31T12:05:10;7.13;;;3.92;;
59998;SDS011;45859;51.378;6.736;2023-07-31T12:10:09;6.57;;;4.05;;
59998;SDS011;45859;51.378;6.736;2023-07-31T12:12:34;5.50;;;2.90;;
59998;SDS011;45859;51.378;6.736;2023-07-31T12:15:00;5.82;;;3.03;;
59998;SDS011;45859;51.378;6.736;2023-07-31T12:17:26;4.82;;;2.83;;
59998;SDS011;45859;51.378;6.736;2023-07-31T12:19:51;5.70;;;3.53;;
59998;SDS011;45859;51.378;6.736;2023-07-31T12:22:17;6.28;;;3.85;;
59998;SDS011;45859;51.378;6.736;2023-07-31T12:24:46;5.05;;;3.47;;
59998;SDS011;45859;51.378;6.736;2023-07-31T12:27:12;4.40;;;3.50;;
59998;SDS011;45859;51.378;6.736;2023-07-31T12:29:40;7.95;;;3.67;;
59998;SDS011;45859;51.378;6.736;2023-07-31T12:32:20;6.03;;;3.47;;
59998;SDS011;45859;51.378;6.736;2023-07-31T12:34:46;7.22;;;3.25;;
59998;SDS011;45859;51.378;6.736;2023-07-31T12:37:12;3.92;;;2.80;;
59998;SDS011;45859;51.378;6.736;2023-07-31T12:39:38;7.60;;;3.50;;
59998;SDS011;45859;51.378;6.736;2023-07-31T12:42:04;4.75;;;2.97;;
59998;SDS011;45859;51.378;6.736;2023-07-31T12:44:30;3.50;;;2.70;;
59998;SDS011;45859;51.378;6.736;2023-07-31T12:46:56;5.97;;;3.13;;
59998;SDS011;45859;51.378;6.736;2023-07-31T12:49:22;5.30;;;3.00;;
59998;SDS011;45859;51.378;6.736;2023-07-31T12:51:48;5.25;;;2.92;;
59998;SDS011;45859;51.378;6.736;2023-07-31T12:54:14;4.90;;;3.10;;
59998;SDS011;45859;51.378;6.736;2023-07-31T12:56:39;4.97;;;3.03;;
59998;SDS011;45859;51.378;6.736;2023-07-31T12:59:05;3.20;;;2.83;;
59998;SDS011;45859;51.378;6.736;2023-07-31T13:01:31;3.50;;;3.00;;
59998;SDS011;45859;51.378;6.736;2023-07-31T13:03:57;5.72;;;3.85;;
59998;SDS011;45859;51.378;6.736;2023-07-31T13:06:24;10.38;;;3.78;;
59998;SDS011;45859;51.378;6.736;2023-07-31T13:08:50;4.35;;;3.45;;
59998;SDS011;45859;51.378;6.736;2023-07-31T13:11:16;3.65;;;2.88;;
59998;SDS011;45859;51.378;6.736;2023-07-31T13:13:42;3.85;;;2.60;;
59998;SDS011;45859;51.378;6.736;2023-07-31T13:16:08;3.55;;;2.67;;
59998;SDS011;45859;51.378;6.736;2023-07-31T13:18:33;3.60;;;3.00;;
59998;SDS011;45859;51.378;6.736;2023-07-31T13:20:59;4.22;;;3.08;;
59998;SDS011;45859;51.378;6.736;2023-07-31T13:23:25;4.65;;;2.90;;
59998;SDS011;45859;51.378;6.736;2023-07-31T13:25:50;4.97;;;3.10;;
59998;SDS011;45859;51.378;6.736;2023-07-31T13:28:16;4.45;;;3.38;;
59998;SDS011;45859;51.378;6.736;2023-07-31T13:30:42;5.18;;;4.03;;
59998;SDS011;45859;51.378;6.736;2023-07-31T13:33:07;3.95;;;3.47;;
59998;SDS011;45859;51.378;6.736;2023-07-31T13:35:33;5.03;;;3.35;;
59998;SDS011;45859;51.378;6.736;2023-07-31T13:37:59;3.50;;;2.88;;
59998;SDS011;45859;51.378;6.736;2023-07-31T13:40:24;4.00;;;3.40;;
59998;SDS011;45859;51.378;6.736;2023-07-31T13:42:50;4.20;;;3.45;;
59998;SDS011;45859;51.378;6.736;2023-07-31T13:45:16;4.18;;;3.30;;
59998;SDS011;45859;51.378;6.736;2023-07-31T13:47:42;5.63;;;3.00;;
59998;SDS011;45859;51.378;6.736;2023-07-31T13:50:07;6.13;;;3.60;;
59998;SDS011;45859;51.378;6.736;2023-07-31T13:52:33;5.60;;;3.67;;
59998;SDS011;45859;51.378;6.736;2023-07-31T13:54:59;6.03;;;3.50;;
59998;SDS011;45859;51.378;6.736;2023-07-31T13:57:25;5.55;;;3.97;;
59998;SDS011;45859;51.378;6.736;2023-07-31T13:59:50;5.20;;;3.70;;
59998;SDS011;45859;51.378;6.736;2023-07-31T14:02:16;6.65;;;3.67;;
59998;SDS011;45859;51.378;6.736;2023-07-31T14:04:42;7.57;;;3.78;;
59998;SDS011;45859;51.378;6.736;2023-07-31T14:07:08;5.18;;;3.70;;
59998;SDS011;45859;51.378;6.736;2023-07-31T14:09:33;4.90;;;3.88;;
59998;SDS011;45859;51.378;6.736;2023-07-31T14:11:59;5.90;;;4.00;;
59998;SDS011;45859;51.378;6.736;2023-07-31T14:14:25;5.93;;;3.63;;
59998;SDS011;45859;51.378;6.736;2023-07-31T14:16:51;8.18;;;4.00;;
59998;SDS011;45859;51.378;6.736;2023-07-31T14:19:16;5.35;;;3.45;;
59998;SDS011;45859;51.378;6.736;2023-07-31T14:21:42;7.47;;;3.42;;
59998;SDS011;45859;51.378;6.736;2023-07-31T14:24:08;5.00;;;3.47;;
59998;SDS011;45859;51.378;6.736;2023-07-31T14:26:33;6.85;;;3.83;;
59998;SDS011;45859;51.378;6.736;2023-07-31T14:28:59;6.25;;;3.80;;
59998;SDS011;45859;51.378;6.736;2023-07-31T14:31:25;5.03;;;3.80;;
59998;SDS011;45859;51.378;6.736;2023-07-31T14:33:50;6.45;;;3.97;;
59998;SDS011;45859;51.378;6.736;2023-07-31T14:36:16;5.88;;;4.10;;
59998;SDS011;45859;51.378;6.736;2023-07-31T14:38:42;5.65;;;3.80;;
59998;SDS011;45859;51.378;6.736;2023-07-31T14:41:08;6.40;;;3.58;;
59998;SDS011;45859;51.378;6.736;2023-07-31T14:43:33;6.65;;;4.32;;
59998;SDS011;45859;51.378;6.736;2023-07-31T14:45:59;6.40;;;4.13;;
59998;SDS011;45859;51.378;6.736;2023-07-31T14:48:25;5.80;;;3.60;;
59998;SDS011;45859;51.378;6.736;2023-07-31T14:50:52;6.03;;;3.72;;
59998;SDS011;45859;51.378;6.736;2023-07-31T14:53:18;7.90;;;3.90;;
59998;SDS011;45859;51.378;6.736;2023-07-31T14:55:44;5.90;;;3.70;;
59998;SDS011;45859;51.378;6.736;2023-07-31T14:58:09;6.88;;;4.03;;
59998;SDS011;45859;51.378;6.736;2023-07-31T15:00:36;6.70;;;3.60;;
59998;SDS011;45859;51.378;6.736;2023-07-31T15:03:02;5.65;;;3.60;;
59998;SDS011;45859;51.378;6.736;2023-07-31T15:05:28;4.22;;;3.55;;
59998;SDS011;45859;51.378;6.736;2023-07-31T15:07:54;8.27;;;3.75;;
59998;SDS011;45859;51.378;6.736;2023-07-31T15:10:19;7.35;;;4.20;;
59998;SDS011;45859;51.378;6.736;2023-07-31T15:12:45;5.07;;;3.85;;